Deming Municipal Airport Deming US
ICAO: KDMN
IATA: DMN
Category: Medium
Scheduled Services: No

Elevation: 4314 ft
TransAlt. 18000 ft.

Airport Communications:
ASOS:118.525
ALBUQUERQUE CNTR:128.2
ALBUQUERQUE RDO:122.2
CTAF/UNICOM:122.8

KDMN Zoom In..

Runways:

(A) RW 04 length 5675 ft width 60 ft
---- / hdg 42

(B) RW 08 length 8018 ft width 75 ft
---- / hdg 80

(C) RW 22 length 5675 ft width 60 ft
---- / hdg 222

(D) RW 26 length 8018 ft width 75 ft
---- / hdg 260

Location; KDMN
Day. 23 / Time. 21.53 Zulu
* Altimeter: 30.18
* Temperature: 13° c. 55.4°f.
* Wind from: 080° Speed 11 kn with Gusts up to 19 kn.
Dewpoint: -18° c.
Visibility: 10 Statute Miles.
Clouds: Clear (automated report).

KDMN 232153Z AUTO 08011G19KT 10SM CLR 13/M18 A3018 RMK AO2 SLP211 T01281183


Wind From 080°
Speed 11 kn.

YouTube Music Video
 
jpsmedia.com for Web Design  worldairports.se 2018   terms of use